Time;durP1;ratioP1;P1;durP2;ratioP2;P2;SDS_P1;SDS_P2;PMS_P1;PMS_P2;Temp;Humidity;BMP_temperature;BMP_pressure;BME280_temperature;BME280_humidity;BME280_pressure;Samples;Min_cycle;Max_cycle;Signal;HPM_P1;HPM_P2
2022/07/28 00:01:51;;;;;;;4.07;1.00;;;21.80;74.10;;;;;;4936838;29;20035;-79
2022/07/28 00:04:16;;;;;;;2.83;1.30;;;21.80;74.90;;;;;;4937076;29;20423;-78
2022/07/28 00:06:42;;;;;;;7.63;1.33;;;21.70;75.30;;;;;;4935900;29;20500;-78
2022/07/28 00:09:08;;;;;;;6.40;1.20;;;21.60;76.30;;;;;;4936909;29;20046;-78
2022/07/28 00:11:33;;;;;;;3.00;1.10;;;21.60;76.80;;;;;;4939392;29;20035;-78
2022/07/28 00:13:59;;;;;;;4.30;1.50;;;21.50;76.90;;;;;;4955836;29;20042;-78
2022/07/28 00:16:25;;;;;;;2.17;1.00;;;21.50;77.70;;;;;;4955841;29;20374;-78
2022/07/28 00:18:51;;;;;;;3.20;1.08;;;21.40;79.50;;;;;;4955869;29;20023;-78
2022/07/28 00:21:16;;;;;;;4.57;1.35;;;21.30;80.90;;;;;;4956418;29;20505;-78
2022/07/28 00:23:42;;;;;;;4.93;1.30;;;21.10;83.00;;;;;;4954472;29;20034;-78
2022/07/28 00:26:08;;;;;;;5.95;1.63;;;21.30;83.40;;;;;;4955878;29;20027;-78
2022/07/28 00:28:35;;;;;;;4.28;1.40;;;21.40;84.10;;;;;;4947247;29;20036;-78
2022/07/28 00:31:01;;;;;;;6.15;1.42;;;21.20;84.20;;;;;;4936450;29;20479;-78
2022/07/28 00:33:26;;;;;;;6.38;1.58;;;21.30;84.60;;;;;;4936767;29;20035;-78
2022/07/28 00:35:52;;;;;;;4.72;1.20;;;21.30;85.50;;;;;;4936277;29;20400;-78
2022/07/28 00:38:18;;;;;;;12.15;1.83;;;21.20;86.30;;;;;;4936491;29;20492;-78
2022/07/28 00:43:28;;;;;;;6.97;1.63;;;21.10;88.70;;;;;;4955651;29;20043;-78
2022/07/28 00:45:53;;;;;;;5.50;1.50;;;21.20;89.20;;;;;;4954307;28;20427;-78
2022/07/28 00:48:19;;;;;;;5.07;1.45;;;21.10;89.20;;;;;;4955207;28;20027;-78
2022/07/28 00:50:45;;;;;;;8.15;1.63;;;21.10;90.20;;;;;;4937683;29;20038;-78
2022/07/28 00:53:10;;;;;;;9.07;1.80;;;20.90;90.80;;;;;;4936158;29;20035;-78
2022/07/28 00:55:37;;;;;;;4.95;1.23;;;20.90;91.20;;;;;;4936619;29;20034;-78
2022/07/28 00:58:03;;;;;;;9.93;2.15;;;21.00;91.30;;;;;;4935777;29;20074;-78
2022/07/28 01:00:28;;;;;;;4.22;1.80;;;20.90;91.50;;;;;;4935942;29;20062;-78
2022/07/28 01:02:54;;;;;;;6.13;1.70;;;21.00;91.70;;;;;;4935923;29;20035;-78
2022/07/28 01:05:20;;;;;;;6.00;1.77;;;20.80;92.20;;;;;;4946562;29;20030;-78
2022/07/28 01:08:09;;;;;;;5.78;1.48;;;20.70;92.70;;;;;;4953294;29;20031;-78
2022/07/28 01:11:22;;;;;;;2.53;1.30;;;20.80;92.70;;;;;;4954500;29;20507;-78
2022/07/28 01:13:58;;;;;;;6.30;2.42;;;20.80;93.10;;;;;;4895484;29;20044;-78
2022/07/28 01:16:26;;;;;;;7.35;1.70;;;20.70;93.40;;;;;;4895919;29;20047;-78
2022/07/28 01:19:03;;;;;;;4.50;1.55;;;20.70;93.70;;;;;;4879979;29;20048;-78
2022/07/28 01:21:34;;;;;;;4.45;1.40;;;20.70;93.50;;;;;;4895959;29;20076;-78
2022/07/28 01:24:17;;;;;;;5.25;1.45;;;20.70;93.80;;;;;;4885494;29;20048;-78
2022/07/28 01:26:54;;;;;;;6.40;1.90;;;20.70;93.80;;;;;;4876853;29;20402;-78
2022/07/28 01:29:49;;;;;;;4.22;1.35;;;20.60;94.30;;;;;;4860914;29;20071;-78
2022/07/28 01:32:22;;;;;;;3.03;1.48;;;20.50;94.70;;;;;;4911675;29;20522;-78
2022/07/28 01:35:04;;;;;;;4.88;1.48;;;20.40;95.40;;;;;;4914492;29;20107;-78
2022/07/28 01:37:32;;;;;;;3.35;1.67;;;20.50;95.50;;;;;;4914226;29;20416;-78
2022/07/28 01:40:02;;;;;;;4.68;1.35;;;20.50;95.40;;;;;;4914526;29;20024;-78
2022/07/28 01:42:38;;;;;;;6.57;1.60;;;20.30;96.60;;;;;;4899930;29;20045;-78
2022/07/28 01:45:05;;;;;;;3.28;1.35;;;20.30;96.30;;;;;;4894965;29;20577;-78
2022/07/28 01:47:33;;;;;;;6.65;1.67;;;20.30;96.50;;;;;;4895322;29;20099;-78
2022/07/28 01:50:02;;;;;;;13.48;1.65;;;20.30;96.60;;;;;;4939644;29;20039;-78
2022/07/28 01:52:30;;;;;;;4.60;1.50;;;19.90;98.10;;;;;;4953382;29;20035;-78
2022/07/28 01:54:57;;;;;;;2.58;1.13;;;20.10;98.00;;;;;;4953424;29;20026;-78
2022/07/28 01:57:24;;;;;;;8.68;1.33;;;20.20;97.70;;;;;;4952776;29;20483;-77
2022/07/28 01:59:52;;;;;;;7.15;1.17;;;20.10;97.80;;;;;;4950307;28;20111;-78
2022/07/28 02:02:20;;;;;;;3.05;1.30;;;20.00;98.70;;;;;;4935055;29;20037;-78
2022/07/28 02:04:47;;;;;;;5.30;1.38;;;20.00;98.90;;;;;;4935245;29;20401;-78
2022/07/28 02:07:13;;;;;;;3.85;1.30;;;20.00;98.90;;;;;;4935121;29;20412;-78
2022/07/28 02:09:41;;;;;;;5.53;1.35;;;20.20;98.70;;;;;;4934959;29;20036;-78
2022/07/28 02:12:08;;;;;;;4.50;1.40;;;20.20;98.70;;;;;;4934331;29;20040;-78
2022/07/28 02:14:36;;;;;;;5.15;1.77;;;20.20;98.40;;;;;;4934096;29;20028;-77
2022/07/28 02:17:07;;;;;;;3.80;1.52;;;20.10;98.70;;;;;;4934826;29;20031;-78
2022/07/28 02:19:36;;;;;;;4.38;1.20;;;20.10;98.90;;;;;;4935082;29;20031;-78
2022/07/28 02:22:02;;;;;;;6.63;1.50;;;20.10;99.20;;;;;;4935335;29;20024;-78
2022/07/28 02:24:29;;;;;;;6.70;1.60;;;20.10;99.40;;;;;;4934368;29;20083;-78
2022/07/28 02:27:00;;;;;;;5.55;1.25;;;20.10;99.70;;;;;;4934866;29;20046;-78
2022/07/28 02:29:29;;;;;;;5.20;1.30;;;19.80;99.90;;;;;;4934858;29;20086;-78
2022/07/28 02:32:06;;;;;;;3.45;1.23;;;19.80;99.90;;;;;;4934486;29;20511;-78
2022/07/28 02:34:35;;;;;;;4.90;1.27;;;19.80;99.90;;;;;;4934752;29;20035;-78
2022/07/28 02:37:03;;;;;;;2.75;0.98;;;19.80;99.90;;;;;;4934687;29;20053;-78
2022/07/28 02:39:39;;;;;;;6.13;1.38;;;19.80;99.90;;;;;;4934777;29;20023;-78
2022/07/28 02:42:12;;;;;;;3.08;1.13;;;19.70;99.90;;;;;;4936544;29;20058;-78
2022/07/28 02:44:45;;;;;;;4.60;1.38;;;19.60;99.90;;;;;;4935067;29;20107;-78
2022/07/28 02:47:15;;;;;;;6.78;1.20;;;19.60;99.90;;;;;;4934245;29;20044;-78
2022/07/28 02:49:42;;;;;;;5.57;1.42;;;19.60;99.90;;;;;;4934480;29;20154;-78
2022/07/28 02:52:10;;;;;;;5.47;1.17;;;19.60;99.90;;;;;;4934844;29;20547;-78
2022/07/28 02:54:36;;;;;;;4.65;1.23;;;19.60;99.90;;;;;;4934304;29;20111;-78
2022/07/28 02:57:03;;;;;;;5.93;1.25;;;19.60;99.90;;;;;;4949918;28;20408;-78
2022/07/28 02:59:30;;;;;;;4.78;1.60;;;19.50;99.90;;;;;;4934443;29;20091;-78
2022/07/28 03:01:57;;;;;;;4.15;1.38;;;19.40;99.90;;;;;;4934809;29;20090;-78
2022/07/28 03:07:08;;;;;;;7.55;1.40;;;19.10;99.90;;;;;;4935068;29;20555;-78
2022/07/28 03:09:42;;;;;;;7.82;1.50;;;19.20;99.90;;;;;;4933997;29;20032;-78
2022/07/28 03:12:09;;;;;;;4.95;1.30;;;19.20;99.90;;;;;;4933883;29;20055;-78
2022/07/28 03:14:35;;;;;;;4.93;1.30;;;19.30;99.90;;;;;;4949490;29;20042;-79
2022/07/28 03:17:01;;;;;;;5.32;1.50;;;19.30;99.90;;;;;;4957169;29;20110;-78
2022/07/28 03:19:27;;;;;;;6.45;1.40;;;19.10;99.90;;;;;;4957430;29;20098;-78
2022/07/28 03:21:53;;;;;;;3.95;1.00;;;18.90;99.90;;;;;;4956822;29;20428;-78
2022/07/28 03:24:22;;;;;;;7.43;1.30;;;18.90;99.90;;;;;;4956280;29;20023;-78
2022/07/28 03:26:57;;;;;;;3.85;1.17;;;19.00;99.90;;;;;;4956249;29;20033;-78
2022/07/28 03:29:26;;;;;;;3.20;1.00;;;19.10;99.90;;;;;;4956727;29;20059;-78
2022/07/28 03:31:55;;;;;;;2.85;1.30;;;19.10;99.90;;;;;;4950099;29;20042;-78
2022/07/28 03:34:21;;;;;;;3.70;1.25;;;19.00;99.90;;;;;;4937539;29;20082;-78
2022/07/28 03:36:52;;;;;;;3.42;1.10;;;19.00;99.90;;;;;;4937784;29;20503;-78
2022/07/28 03:39:22;;;;;;;2.08;0.90;;;19.00;99.90;;;;;;4937141;29;20403;-78
2022/07/28 03:41:48;;;;;;;6.20;1.23;;;18.90;99.90;;;;;;4945695;29;20027;-78
2022/07/28 03:44:15;;;;;;;3.75;1.30;;;18.70;99.90;;;;;;4956744;28;20023;-78
2022/07/28 03:46:44;;;;;;;3.53;0.93;;;18.70;99.90;;;;;;4956370;28;20098;-78
2022/07/28 03:49:10;;;;;;;6.38;1.17;;;18.70;99.90;;;;;;4956021;28;20490;-78
2022/07/28 03:51:36;;;;;;;3.85;1.40;;;18.70;99.90;;;;;;4956295;29;20034;-77
2022/07/28 03:54:02;;;;;;;4.68;1.00;;;18.80;99.90;;;;;;4957025;29;20027;-78
2022/07/28 03:56:27;;;;;;;4.57;1.20;;;18.80;99.90;;;;;;4956357;28;20023;-78
2022/07/28 03:58:53;;;;;;;8.52;1.60;;;18.80;99.90;;;;;;4956579;29;20395;-77
2022/07/28 04:01:19;;;;;;;4.43;1.10;;;18.70;99.90;;;;;;4954919;29;20113;-78
2022/07/28 04:03:44;;;;;;;9.10;1.30;;;18.50;99.90;;;;;;4955751;29;20023;-77
2022/07/28 04:06:14;;;;;;;4.97;1.30;;;18.50;99.90;;;;;;4953411;29;20031;-78
2022/07/28 04:08:40;;;;;;;3.97;1.33;;;18.50;99.90;;;;;;4956443;29;20023;-77
2022/07/28 04:11:06;;;;;;;3.17;1.33;;;18.50;99.90;;;;;;4956457;29;20033;-78
2022/07/28 04:13:35;;;;;;;3.05;1.02;;;18.50;99.90;;;;;;4956152;29;20036;-77
2022/07/28 04:16:01;;;;;;;3.53;0.95;;;18.20;99.90;;;;;;4956061;29;20035;-78
2022/07/28 04:18:26;;;;;;;4.10;1.08;;;18.10;99.90;;;;;;4955931;29;20394;-78
2022/07/28 04:20:52;;;;;;;6.18;1.73;;;18.40;99.90;;;;;;4948246;29;20114;-78
2022/07/28 04:23:19;;;;;;;5.32;1.42;;;18.30;99.90;;;;;;4936587;29;20020;-79
2022/07/28 04:25:45;;;;;;;3.22;1.10;;;18.40;99.90;;;;;;4938300;29;20395;-79
2022/07/28 04:28:10;;;;;;;4.68;1.20;;;18.10;99.90;;;;;;4937087;29;20028;-78
2022/07/28 04:30:36;;;;;;;4.05;1.17;;;18.20;99.90;;;;;;4936673;29;20055;-78
2022/07/28 04:33:02;;;;;;;2.78;1.10;;;18.20;99.90;;;;;;4936901;29;20103;-78
2022/07/28 04:35:28;;;;;;;3.10;1.17;;;18.20;99.90;;;;;;4936028;29;20028;-78
2022/07/28 04:37:57;;;;;;;3.40;1.35;;;18.10;99.90;;;;;;4935522;29;20040;-78
2022/07/28 04:40:24;;;;;;;5.15;1.23;;;17.90;99.90;;;;;;4940905;29;20484;-77
2022/07/28 04:42:50;;;;;;;2.40;0.90;;;18.10;99.90;;;;;;4963386;28;20031;-78
2022/07/28 04:45:16;;;;;;;5.88;1.77;;;18.30;99.90;;;;;;4961533;28;20391;-79
2022/07/28 04:47:41;;;;;;;8.48;1.13;;;18.10;99.90;;;;;;4956245;28;20027;-79
2022/07/28 04:50:09;;;;;;;5.30;1.35;;;18.20;99.90;;;;;;4954771;28;20407;-78
2022/07/28 04:52:35;;;;;;;5.72;1.73;;;18.00;99.90;;;;;;4955340;28;20511;-78
2022/07/28 04:55:02;;;;;;;2.85;1.05;;;17.80;99.90;;;;;;4955322;28;20031;-79
2022/07/28 04:57:28;;;;;;;6.35;1.52;;;18.10;99.90;;;;;;4949612;28;20038;-78
2022/07/28 04:59:55;;;;;;;3.42;1.30;;;18.20;99.90;;;;;;4958520;28;20023;-78
2022/07/28 05:02:21;;;;;;;8.43;1.15;;;18.30;99.90;;;;;;4961452;28;20019;-78
2022/07/28 05:04:46;;;;;;;6.05;1.63;;;18.30;99.90;;;;;;4954912;28;20035;-77
2022/07/28 05:07:12;;;;;;;3.63;1.13;;;18.30;99.90;;;;;;4955080;29;20086;-78
2022/07/28 05:09:38;;;;;;;3.25;1.13;;;18.30;99.90;;;;;;4954646;29;20039;-78
2022/07/28 05:12:05;;;;;;;4.63;1.27;;;18.10;99.90;;;;;;4955213;29;20439;-78
2022/07/28 05:14:31;;;;;;;5.72;1.40;;;18.20;99.90;;;;;;4956022;28;20035;-77
2022/07/28 05:16:57;;;;;;;9.90;1.40;;;18.30;99.90;;;;;;4953894;29;20027;-77
2022/07/28 05:19:23;;;;;;;3.33;1.30;;;18.30;99.90;;;;;;4955413;29;20387;-77
2022/07/28 05:21:48;;;;;;;14.00;1.95;;;18.30;99.90;;;;;;4955753;29;20019;-77
2022/07/28 05:24:15;;;;;;;7.38;1.42;;;18.20;99.90;;;;;;4955758;29;20100;-78
2022/07/28 05:26:40;;;;;;;8.15;1.30;;;18.20;99.90;;;;;;4955690;29;20034;-78
2022/07/28 05:29:06;;;;;;;6.95;1.15;;;18.20;99.90;;;;;;4955735;29;20460;-78
2022/07/28 05:31:32;;;;;;;2.92;1.40;;;18.30;99.90;;;;;;4955444;29;20437;-77
2022/07/28 05:33:57;;;;;;;2.53;1.25;;;18.30;99.90;;;;;;4955372;29;20030;-78
2022/07/28 05:36:23;;;;;;;5.07;2.05;;;18.20;99.90;;;;;;4958559;28;20480;-78
2022/07/28 05:38:49;;;;;;;6.25;1.50;;;18.30;99.90;;;;;;4937546;29;20030;-78
2022/07/28 05:41:14;;;;;;;5.88;1.80;;;18.30;99.90;;;;;;4940815;29;20110;-79
2022/07/28 05:43:40;;;;;;;4.90;1.58;;;18.50;99.90;;;;;;4952939;28;20071;-79
2022/07/28 05:46:06;;;;;;;8.02;1.55;;;18.30;99.90;;;;;;4935754;29;20111;-79
2022/07/28 05:48:32;;;;;;;8.10;1.70;;;18.40;99.90;;;;;;4967850;28;20027;-79
2022/07/28 05:50:58;;;;;;;6.43;1.75;;;18.40;99.90;;;;;;4969243;28;20491;-79
2022/07/28 05:53:24;;;;;;;9.35;1.70;;;18.50;99.90;;;;;;4955018;29;20111;-79
2022/07/28 05:55:50;;;;;;;10.70;1.92;;;18.50;99.90;;;;;;4954930;29;20031;-79
2022/07/28 05:58:20;;;;;;;18.95;1.83;;;18.60;99.90;;;;;;4943329;28;20040;-79
2022/07/28 06:00:46;;;;;;;9.35;1.55;;;18.70;99.90;;;;;;4935418;29;20055;-80
2022/07/28 06:03:12;;;;;;;15.75;1.70;;;18.60;99.90;;;;;;4957570;28;20065;-79
2022/07/28 06:05:37;;;;;;;7.95;1.85;;;18.50;99.90;;;;;;4958843;28;20031;-80
2022/07/28 06:08:03;;;;;;;11.10;1.77;;;18.60;99.90;;;;;;4955491;28;20031;-79
2022/07/28 06:13:14;;;;;;;7.05;1.50;;;18.80;99.90;;;;;;4954131;29;20049;-79
2022/07/28 06:15:40;;;;;;;9.80;1.45;;;18.80;99.90;;;;;;4953899;29;20025;-80
2022/07/28 06:18:05;;;;;;;6.45;1.70;;;18.90;99.90;;;;;;4953496;29;20110;-79
2022/07/28 06:20:31;;;;;;;10.27;1.88;;;18.90;99.90;;;;;;4953504;29;20481;-80
2022/07/28 06:22:57;;;;;;;6.57;1.13;;;18.90;99.90;;;;;;4955430;28;20027;-80
2022/07/28 06:25:27;;;;;;;8.70;1.42;;;19.10;99.90;;;;;;4953990;29;20042;-80
2022/07/28 06:27:58;;;;;;;10.38;1.85;;;18.90;99.90;;;;;;4940046;29;20063;-80
2022/07/28 06:30:24;;;;;;;6.97;1.80;;;19.10;99.90;;;;;;4950320;28;20031;-80
2022/07/28 11:36:11;;;;;;;7.05;1.02;;;26.80;70.40;;;;;;5171560;23;20059;-79
2022/07/28 11:38:36;;;;;;;5.38;1.55;;;27.40;69.20;;;;;;4988220;28;20486;-79
2022/07/28 11:41:33;;;;;;;9.63;1.40;;;28.00;65.20;;;;;;4992912;28;20022;-79
2022/07/28 11:44:25;;;;;;;3.88;1.05;;;28.10;63.30;;;;;;4976717;28;20030;-79
2022/07/28 11:46:51;;;;;;;10.75;1.45;;;27.60;65.50;;;;;;4976733;28;20057;-79
2022/07/28 11:49:20;;;;;;;9.88;1.20;;;27.40;65.60;;;;;;4964374;28;20058;-82
2022/07/28 11:52:08;;;;;;;5.63;1.45;;;27.30;67.30;;;;;;4976261;28;20099;-79
2022/07/28 11:54:38;;;;;;;4.80;1.17;;;27.00;66.50;;;;;;4987723;28;20494;-79
2022/07/28 11:57:06;;;;;;;3.33;1.25;;;27.30;66.20;;;;;;4978773;28;20030;-79
2022/07/28 11:59:43;;;;;;;2.97;0.98;;;27.00;66.00;;;;;;4995466;28;20018;-79
2022/07/28 12:02:13;;;;;;;5.30;1.30;;;26.90;67.40;;;;;;4985646;28;20150;-79
2022/07/28 12:04:39;;;;;;;4.97;1.70;;;26.80;67.90;;;;;;4989095;28;20030;-79
2022/07/28 12:07:06;;;;;;;4.60;1.77;;;27.10;67.00;;;;;;4994795;28;20033;-81
2022/07/28 12:09:32;;;;;;;7.20;1.60;;;27.60;64.60;;;;;;4986884;28;20451;-81
2022/07/28 12:11:58;;;;;;;3.72;1.20;;;28.40;61.10;;;;;;4987284;28;20024;-81
2022/07/28 12:14:28;;;;;;;8.23;1.52;;;28.70;60.50;;;;;;4985831;28;20412;-79
2022/07/28 12:16:55;;;;;;;6.90;1.52;;;29.30;58.80;;;;;;4987076;28;20029;-81
2022/07/28 12:19:21;;;;;;;3.20;1.00;;;29.00;59.90;;;;;;4975202;28;20038;-81
2022/07/28 12:21:53;;;;;;;5.32;1.40;;;28.60;58.00;;;;;;4976020;28;20508;-82
2022/07/28 12:24:26;;;;;;;4.13;1.42;;;28.00;58.40;;;;;;4987479;28;20027;-80
2022/07/28 12:26:52;;;;;;;5.18;0.93;;;27.50;60.30;;;;;;4982331;28;20025;-82
2022/07/28 12:29:18;;;;;;;3.58;1.20;;;27.30;62.60;;;;;;4993595;28;20027;-82
2022/07/28 12:31:53;;;;;;;6.53;1.50;;;27.10;63.40;;;;;;4981450;28;20023;-81
2022/07/28 12:34:19;;;;;;;8.27;1.48;;;27.60;62.40;;;;;;4974874;28;20025;-81
2022/07/28 12:36:45;;;;;;;4.78;1.40;;;27.60;63.10;;;;;;4967753;28;20047;-79
2022/07/28 12:39:11;;;;;;;7.32;1.27;;;27.50;62.10;;;;;;4966337;28;20030;-81
2022/07/28 12:41:37;;;;;;;12.52;1.10;;;28.20;61.30;;;;;;4973701;28;20088;-79
2022/07/28 12:44:04;;;;;;;7.72;1.58;;;28.50;60.20;;;;;;4975576;28;20494;-81
2022/07/28 12:46:31;;;;;;;6.18;1.35;;;28.80;60.30;;;;;;4974087;28;20076;-82
2022/07/28 12:48:58;;;;;;;5.25;1.67;;;29.00;58.90;;;;;;4975453;28;20105;-81
2022/07/28 12:51:37;;;;;;;14.25;1.15;;;29.10;57.50;;;;;;4967532;28;20031;-82
2022/07/28 12:54:05;;;;;;;4.05;1.30;;;29.00;57.60;;;;;;4952653;29;20027;-79
2022/07/28 12:56:42;;;;;;;6.32;1.27;;;29.20;56.40;;;;;;4955841;28;20023;-79
2022/07/28 12:59:09;;;;;;;5.35;1.30;;;29.40;56.70;;;;;;4955773;29;20031;-82
2022/07/28 13:01:50;;;;;;;7.22;1.42;;;29.10;55.50;;;;;;4956143;29;20027;-80
2022/07/28 13:04:35;;;;;;;;;;;29.00;55.30;;;;;;4956053;28;20530;-82
2022/07/28 13:07:08;;;;;;;7.10;1.70;;;29.40;55.30;;;;;;4963006;28;20005;-79
2022/07/28 13:09:47;;;;;;;8.77;1.65;;;29.30;53.90;;;;;;4975204;28;20045;-84
2022/07/28 13:12:14;;;;;;;7.38;1.13;;;29.20;55.10;;;;;;4974827;28;20021;-82
2022/07/28 13:14:45;;;;;;;4.30;1.42;;;29.60;53.70;;;;;;4974956;28;20034;-82
2022/07/28 13:17:11;;;;;;;4.95;1.55;;;29.70;54.10;;;;;;4974974;28;20074;-81
2022/07/28 13:19:37;;;;;;;4.03;1.27;;;30.00;53.70;;;;;;4974903;28;22274;-78
2022/07/28 13:22:02;;;;;;;6.57;1.45;;;29.90;51.70;;;;;;4975188;28;20030;-80
2022/07/28 13:24:29;;;;;;;5.30;1.50;;;29.90;51.40;;;;;;4974883;28;20027;-76
2022/07/28 13:26:56;;;;;;;5.82;1.63;;;29.80;49.80;;;;;;4959383;28;20016;-76
2022/07/28 13:29:21;;;;;;;16.58;1.60;;;29.50;49.20;;;;;;4954402;29;20371;-76
2022/07/28 13:31:47;;;;;;;5.45;1.35;;;29.60;51.50;;;;;;4954453;29;20023;-77
2022/07/28 13:34:13;;;;;;;17.13;2.10;;;29.50;51.90;;;;;;4953981;28;20112;-77
2022/07/28 13:36:39;;;;;;;13.48;1.42;;;29.80;51.90;;;;;;4942789;29;20039;-79
2022/07/28 13:39:07;;;;;;;7.55;1.40;;;30.00;51.90;;;;;;4936241;29;20047;-76
2022/07/28 13:41:32;;;;;;;2.85;1.20;;;30.00;49.20;;;;;;4956756;28;20521;-77
2022/07/28 13:43:59;;;;;;;4.72;1.20;;;30.20;48.80;;;;;;4974197;28;20050;-77
2022/07/28 13:46:25;;;;;;;3.72;1.20;;;29.30;48.60;;;;;;4970872;28;20402;-78
2022/07/28 13:48:51;;;;;;;4.75;1.35;;;28.80;50.30;;;;;;4971075;28;20094;-79
2022/07/28 13:51:17;;;;;;;5.10;1.20;;;29.20;49.90;;;;;;4973681;28;20070;-77
2022/07/28 13:53:43;;;;;;;5.68;1.50;;;29.50;50.20;;;;;;4967333;28;20035;-77
2022/07/28 13:56:09;;;;;;;5.78;1.15;;;29.80;49.20;;;;;;4973231;28;20031;-77
2022/07/28 13:58:36;;;;;;;6.32;1.40;;;29.50;49.90;;;;;;4973768;28;20390;-79
2022/07/28 14:01:03;;;;;;;7.95;1.45;;;29.60;49.00;;;;;;4972145;28;20027;-77
2022/07/28 14:03:30;;;;;;;5.75;1.40;;;29.10;50.10;;;;;;4970380;28;20475;-77
2022/07/28 14:05:56;;;;;;;3.58;1.20;;;29.60;50.30;;;;;;4961642;28;20019;-77
2022/07/28 14:08:22;;;;;;;6.65;1.20;;;29.70;50.30;;;;;;4958692;28;20107;-77
2022/07/28 14:10:50;;;;;;;6.28;1.60;;;29.70;48.50;;;;;;4953519;28;20023;-77
2022/07/28 14:13:18;;;;;;;16.17;1.55;;;29.70;49.40;;;;;;4962827;28;20443;-77
2022/07/28 14:15:45;;;;;;;4.38;1.30;;;29.60;49.00;;;;;;4973107;28;20018;-77
2022/07/28 14:18:11;;;;;;;11.45;1.48;;;29.90;48.40;;;;;;4973432;28;20113;-76
2022/07/28 14:20:39;;;;;;;11.20;1.40;;;30.20;47.60;;;;;;4964085;28;20022;-76
2022/07/28 14:23:04;;;;;;;6.10;1.00;;;30.00;47.80;;;;;;4971559;28;20105;-79
2022/07/28 14:25:30;;;;;;;8.45;1.60;;;29.80;49.90;;;;;;4968594;28;20130;-79
2022/07/28 14:27:56;;;;;;;5.03;1.35;;;29.70;49.70;;;;;;4973664;28;20019;-79
2022/07/28 14:30:28;;;;;;;10.68;1.67;;;29.90;49.80;;;;;;4973011;28;20517;-79
2022/07/28 14:32:54;;;;;;;;;;;30.20;48.60;;;;;;4973874;28;20031;-79
2022/07/28 14:35:20;;;;;;;6.10;1.35;;;29.70;49.10;;;;;;4971630;28;19922;-80
2022/07/28 14:37:46;;;;;;;4.10;1.35;;;29.80;48.10;;;;;;4966455;28;20027;-80
2022/07/28 14:40:12;;;;;;;3.58;1.50;;;29.80;48.70;;;;;;4970091;28;20106;-80
2022/07/28 14:42:39;;;;;;;3.80;1.20;;;29.80;48.10;;;;;;4971447;28;20485;-77
2022/07/28 14:45:05;;;;;;;7.13;1.27;;;29.50;48.30;;;;;;4972966;28;20030;-80
2022/07/28 14:47:32;;;;;;;6.78;1.50;;;29.80;48.70;;;;;;4973960;28;20023;-80
2022/07/28 14:49:57;;;;;;;6.60;1.13;;;30.00;49.20;;;;;;4972583;28;20066;-79
2022/07/28 14:52:23;;;;;;;4.35;1.30;;;30.20;48.00;;;;;;4973758;28;20058;-79
2022/07/28 14:54:49;;;;;;;7.35;1.73;;;30.30;48.70;;;;;;4958737;28;20053;-77
2022/07/28 14:57:15;;;;;;;13.18;1.35;;;29.90;48.40;;;;;;4953345;29;20113;-77
2022/07/28 14:59:41;;;;;;;5.65;1.50;;;30.00;49.00;;;;;;4946784;29;20677;-79
2022/07/28 15:02:07;;;;;;;5.20;1.20;;;29.90;47.50;;;;;;4950096;28;20023;-77
2022/07/28 15:04:33;;;;;;;6.20;1.92;;;29.50;48.60;;;;;;4973570;28;20027;-79
2022/07/28 15:07:00;;;;;;;3.70;1.35;;;30.00;49.80;;;;;;4974187;28;20073;-79
2022/07/28 15:09:26;;;;;;;3.35;1.25;;;30.40;47.90;;;;;;4974931;28;20034;-79
2022/07/28 15:11:52;;;;;;;5.07;1.38;;;30.20;48.40;;;;;;4976871;28;20015;-79
2022/07/28 15:14:17;;;;;;;12.32;1.27;;;29.80;49.50;;;;;;4974591;28;20049;-79
2022/07/28 15:16:43;;;;;;;5.85;1.20;;;29.90;49.50;;;;;;4976578;28;20495;-79
2022/07/28 15:19:09;;;;;;;3.30;1.27;;;29.40;51.00;;;;;;4960082;28;20055;-79
2022/07/28 15:21:38;;;;;;;3.58;1.25;;;29.70;49.70;;;;;;4958026;29;20607;-79
2022/07/28 15:24:05;;;;;;;5.50;1.55;;;29.80;50.80;;;;;;4956438;29;20019;-79
2022/07/28 15:26:31;;;;;;;4.63;1.67;;;29.80;49.40;;;;;;4957733;29;20023;-79
2022/07/28 15:28:56;;;;;;;6.78;1.20;;;29.80;48.90;;;;;;4957210;29;20049;-79
2022/07/28 15:31:24;;;;;;;4.80;1.33;;;29.80;49.60;;;;;;4957956;29;20529;-79
2022/07/28 15:33:50;;;;;;;8.10;1.52;;;30.00;49.40;;;;;;4942601;29;20034;-79
2022/07/28 15:36:17;;;;;;;8.25;1.33;;;29.80;49.60;;;;;;4949868;28;20051;-79
2022/07/28 15:38:42;;;;;;;9.13;1.30;;;29.90;50.20;;;;;;4952960;29;20040;-79
2022/07/28 15:41:08;;;;;;;10.20;1.33;;;29.80;48.80;;;;;;4938545;29;20369;-77
2022/07/28 15:43:34;;;;;;;6.40;1.30;;;29.80;49.50;;;;;;4938335;29;20020;-79
2022/07/28 15:46:08;;;;;;;12.18;2.47;;;29.90;49.30;;;;;;4938482;29;20082;-77
2022/07/28 15:48:34;;;;;;;3.22;1.15;;;29.90;49.70;;;;;;4938265;29;20467;-79
2022/07/28 15:51:00;;;;;;;8.55;1.65;;;29.80;49.20;;;;;;4944390;28;20034;-79
2022/07/28 15:53:26;;;;;;;2.97;1.20;;;29.90;49.00;;;;;;4937801;29;20040;-79
2022/07/28 15:55:52;;;;;;;10.98;1.48;;;29.80;49.00;;;;;;4949958;29;20038;-79
2022/07/28 15:58:19;;;;;;;7.65;1.90;;;29.90;49.30;;;;;;4957050;29;20035;-79
2022/07/28 16:00:45;;;;;;;3.53;1.10;;;30.00;49.70;;;;;;4957252;29;20110;-79
2022/07/28 16:03:10;;;;;;;5.40;1.23;;;30.00;49.50;;;;;;4957445;29;20102;-79
2022/07/28 16:05:36;;;;;;;8.55;1.30;;;29.70;49.70;;;;;;4957104;29;20054;-79
2022/07/28 16:08:02;;;;;;;3.70;1.65;;;29.60;50.50;;;;;;4957392;29;20030;-79
2022/07/28 16:10:28;;;;;;;4.57;1.30;;;29.40;50.80;;;;;;4956877;29;20051;-79
2022/07/28 16:12:55;;;;;;;3.30;0.98;;;29.40;51.50;;;;;;4956594;29;20042;-79
2022/07/28 16:15:21;;;;;;;3.25;1.20;;;29.50;52.00;;;;;;4948852;29;20110;-79
2022/07/28 16:17:47;;;;;;;8.40;1.27;;;29.80;52.20;;;;;;4957924;28;20474;-79
2022/07/28 16:20:12;;;;;;;2.63;1.25;;;29.90;50.20;;;;;;4975663;28;20035;-79
2022/07/28 16:22:39;;;;;;;5.10;1.40;;;29.80;50.90;;;;;;4925847;29;20027;-79
2022/07/28 16:25:07;;;;;;;7.45;1.30;;;29.70;50.80;;;;;;4937903;29;20028;-79
2022/07/28 16:27:33;;;;;;;4.97;1.48;;;29.70;51.20;;;;;;4956717;28;20127;-79
2022/07/28 16:30:00;;;;;;;6.00;1.20;;;29.70;51.40;;;;;;4975933;28;20391;-79
2022/07/28 16:32:25;;;;;;;7.97;1.42;;;29.70;51.60;;;;;;4958702;28;20085;-79
2022/07/28 16:34:52;;;;;;;3.50;1.15;;;29.80;51.90;;;;;;4975234;28;20047;-78
2022/07/28 16:37:18;;;;;;;2.45;1.02;;;29.80;51.20;;;;;;4940973;29;20031;-79
2022/07/28 16:39:44;;;;;;;4.50;1.38;;;29.80;50.60;;;;;;4937137;29;20031;-79
2022/07/28 16:42:10;;;;;;;13.07;1.77;;;29.70;50.00;;;;;;4952896;28;20027;-79
2022/07/28 16:44:36;;;;;;;7.80;1.30;;;29.60;50.70;;;;;;4976046;28;20019;-79
2022/07/28 16:47:03;;;;;;;8.73;1.35;;;29.80;50.30;;;;;;4967016;28;20034;-79
2022/07/28 16:49:29;;;;;;;28.83;1.80;;;29.70;50.70;;;;;;4939201;29;20027;-79
2022/07/28 16:51:55;;;;;;;5.50;1.20;;;29.70;51.10;;;;;;4939334;28;20028;-78
2022/07/28 16:54:21;;;;;;;9.20;1.33;;;29.50;51.30;;;;;;4963823;28;20019;-81
2022/07/28 16:56:47;;;;;;;5.68;1.40;;;29.30;52.40;;;;;;4955082;28;20027;-76
2022/07/28 16:59:13;;;;;;;8.65;1.33;;;29.30;52.50;;;;;;4974771;28;20093;-80
2022/07/28 17:01:39;;;;;;;4.90;1.38;;;29.30;52.20;;;;;;4968092;28;20507;-86
2022/07/28 17:04:04;;;;;;;3.75;1.40;;;29.40;52.40;;;;;;4957001;28;20689;-81
2022/07/28 17:06:30;;;;;;;3.58;1.17;;;29.60;52.90;;;;;;4973427;28;20106;-81
2022/07/28 17:08:56;;;;;;;5.97;1.40;;;29.70;53.30;;;;;;4970801;28;20522;-82
2022/07/28 17:11:22;;;;;;;5.80;1.50;;;29.60;53.00;;;;;;4968944;28;20034;-80
2022/07/28 17:13:48;;;;;;;8.50;1.80;;;29.50;53.30;;;;;;4972976;28;20038;-78
2022/07/28 17:16:13;;;;;;;5.47;1.80;;;29.50;53.50;;;;;;4964587;28;20031;-78
2022/07/28 17:18:39;;;;;;;7.15;1.92;;;29.40;54.10;;;;;;4969600;28;20027;-81
2022/07/28 17:21:05;;;;;;;6.82;1.55;;;29.20;55.00;;;;;;4970599;28;20071;-78
2022/07/28 17:23:31;;;;;;;4.80;1.27;;;29.10;54.40;;;;;;4963024;28;20479;-78
2022/07/28 17:26:00;;;;;;;9.35;1.35;;;29.10;53.40;;;;;;4953184;28;20027;-78
2022/07/28 17:28:27;;;;;;;4.38;1.50;;;28.90;54.10;;;;;;4972812;28;20018;-77
2022/07/28 17:30:52;;;;;;;6.97;1.40;;;28.90;55.20;;;;;;4967703;28;20110;-78
2022/07/28 17:33:18;;;;;;;5.85;1.27;;;28.90;55.40;;;;;;4973340;28;20430;-78
2022/07/28 17:35:44;;;;;;;3.55;1.17;;;28.80;54.40;;;;;;4966459;28;20113;-78
2022/07/28 17:38:11;;;;;;;5.00;1.35;;;28.70;54.30;;;;;;4972848;28;20471;-78
2022/07/28 17:40:38;;;;;;;4.18;1.40;;;28.60;54.90;;;;;;4952067;28;20031;-78
2022/07/28 17:43:05;;;;;;;5.32;1.30;;;28.50;53.90;;;;;;4964936;28;20023;-78
2022/07/28 17:45:30;;;;;;;5.38;1.88;;;28.70;55.00;;;;;;4961637;28;20050;-79
2022/07/28 17:47:56;;;;;;;3.67;1.52;;;28.80;54.10;;;;;;4957526;28;20055;-80
2022/07/28 17:50:21;;;;;;;6.25;1.42;;;28.80;54.40;;;;;;4965710;28;20412;-79
2022/07/28 17:52:47;;;;;;;7.07;1.58;;;28.70;53.70;;;;;;4967376;28;20065;-78
2022/07/28 17:58:18;;;;;;;7.68;1.77;;;28.70;54.10;;;;;;4965241;28;20537;-78
2022/07/28 18:00:49;;;;;;;5.78;1.40;;;28.60;54.70;;;;;;4957173;28;20557;-76
2022/07/28 18:03:16;;;;;;;3.25;1.30;;;28.40;54.50;;;;;;4973563;28;20102;-85